createdAt,value
2024-05-09T00:01:08.549Z,10.39
2024-05-09T00:03:41.294Z,10.37
2024-05-09T00:06:13.012Z,10.38
2024-05-09T00:08:41.383Z,10.30
2024-05-09T00:11:12.069Z,10.29
2024-05-09T00:13:42.825Z,10.20
2024-05-09T00:16:11.299Z,10.13
2024-05-09T00:18:42.123Z,10.05
2024-05-09T00:21:10.702Z,10.04
2024-05-09T00:23:39.112Z,10.01
2024-05-09T00:26:07.620Z,9.95
2024-05-09T00:28:38.493Z,9.97
2024-05-09T00:31:06.828Z,9.91
2024-05-09T00:33:35.334Z,9.82
2024-05-09T00:36:05.909Z,9.78
2024-05-09T00:38:36.509Z,9.77
2024-05-09T00:41:04.969Z,9.70
2024-05-09T00:43:33.333Z,9.67
2024-05-09T00:46:02.078Z,9.61
2024-05-09T00:48:30.873Z,9.61
2024-05-09T00:51:00.552Z,9.57
2024-05-09T00:53:29.178Z,9.54
2024-05-09T00:55:59.025Z,9.56
2024-05-09T00:58:30.592Z,9.59
2024-05-09T01:01:01.114Z,9.55
2024-05-09T01:03:29.797Z,9.49
2024-05-09T01:05:58.531Z,9.39
2024-05-09T01:08:29.277Z,9.34
2024-05-09T01:10:57.800Z,9.31
2024-05-09T01:13:26.234Z,9.28
2024-05-09T01:15:55.479Z,9.22
2024-05-09T01:18:23.935Z,9.17
2024-05-09T01:20:54.608Z,9.13
2024-05-09T01:23:22.972Z,9.09
2024-05-09T01:25:54.555Z,9.02
2024-05-09T01:28:22.915Z,9.03
2024-05-09T01:30:54.002Z,9.04
2024-05-09T01:33:24.888Z,9.07
2024-05-09T01:35:55.765Z,9.00
2024-05-09T01:38:24.163Z,8.93
2024-05-09T01:40:55.483Z,8.90
2024-05-09T01:43:23.873Z,8.92
2024-05-09T01:45:55.832Z,8.93
2024-05-09T01:48:24.444Z,8.91
2024-05-09T01:50:52.952Z,8.88
2024-05-09T01:53:21.339Z,8.86
2024-05-09T01:55:52.158Z,8.82
2024-05-09T01:58:22.884Z,8.77
2024-05-09T02:00:54.081Z,8.67
2024-05-09T02:03:22.922Z,8.65
2024-05-09T02:05:53.888Z,8.60
2024-05-09T02:08:22.820Z,8.59
2024-05-09T02:10:51.505Z,8.60
2024-05-09T02:13:22.358Z,8.60
2024-05-09T02:15:52.421Z,8.57
2024-05-09T02:18:23.693Z,8.49
2024-05-09T02:20:52.348Z,8.44
2024-05-09T02:23:20.818Z,8.44
2024-05-09T02:25:49.454Z,8.44
2024-05-09T02:28:18.134Z,8.39
2024-05-09T02:30:46.529Z,8.33
2024-05-09T02:33:15.106Z,8.34
2024-05-09T02:35:44.420Z,8.30
2024-05-09T02:38:13.563Z,8.27
2024-05-09T02:40:44.510Z,8.28
2024-05-09T02:43:13.344Z,8.29
2024-05-09T02:45:45.183Z,8.22
2024-05-09T02:48:16.160Z,8.17
2024-05-09T02:50:45.041Z,8.15
2024-05-09T02:53:14.527Z,8.14
2024-05-09T02:55:43.498Z,8.09
2024-05-09T02:58:16.540Z,8.07
2024-05-09T03:00:44.926Z,8.04
2024-05-09T03:03:15.278Z,8.00
2024-05-09T03:05:45.486Z,7.98
2024-05-09T03:08:14.454Z,8.00
2024-05-09T03:10:43.392Z,8.03
2024-05-09T03:13:15.020Z,7.99
2024-05-09T03:15:45.736Z,7.98
2024-05-09T03:18:14.401Z,7.95
2024-05-09T03:20:45.825Z,7.89
2024-05-09T03:23:16.795Z,7.78
2024-05-09T03:25:48.027Z,7.74
2024-05-09T03:28:16.359Z,7.75
2024-05-09T03:30:44.703Z,7.75
2024-05-09T03:33:18.792Z,7.71
2024-05-09T03:35:51.013Z,7.70
2024-05-09T03:38:25.137Z,7.70
2024-05-09T03:40:53.540Z,7.65
2024-05-09T03:43:24.377Z,7.59
2024-05-09T03:45:55.775Z,7.54
2024-05-09T03:48:27.798Z,7.50
2024-05-09T03:50:58.475Z,7.52
2024-05-09T03:53:29.719Z,7.43
2024-05-09T03:55:58.184Z,7.42
2024-05-09T03:58:26.576Z,7.44
2024-05-09T04:00:54.963Z,7.46
2024-05-09T04:03:23.479Z,7.41
2024-05-09T04:05:56.306Z,7.42
2024-05-09T04:08:26.960Z,7.49
2024-05-09T04:10:55.415Z,7.53
2024-05-09T04:13:23.745Z,7.49
2024-05-09T04:15:52.142Z,7.46
2024-05-09T04:18:20.572Z,7.43
2024-05-09T04:20:51.440Z,7.40
2024-05-09T04:23:22.226Z,7.44
2024-05-09T04:25:53.054Z,7.44
2024-05-09T04:28:21.490Z,7.38
2024-05-09T04:30:55.344Z,7.39
2024-05-09T04:33:27.330Z,7.41
2024-05-09T04:35:57.027Z,7.41
2024-05-09T04:38:25.426Z,7.44
2024-05-09T04:40:56.206Z,7.52
2024-05-09T04:43:27.575Z,7.59
2024-05-09T04:45:56.021Z,7.65
2024-05-09T04:48:26.836Z,7.71
2024-05-09T04:50:55.272Z,7.74
2024-05-09T04:53:23.722Z,7.82
2024-05-09T04:55:52.231Z,7.90
2024-05-09T04:58:20.555Z,7.95
2024-05-09T05:00:51.263Z,8.01
2024-05-09T05:03:22.897Z,8.09
2024-05-09T05:05:51.661Z,8.10
2024-05-09T05:08:20.288Z,8.12
2024-05-09T05:10:51.056Z,8.15
2024-05-09T05:13:23.850Z,8.23
2024-05-09T05:15:57.531Z,8.31
2024-05-09T05:18:29.561Z,8.40
2024-05-09T05:21:00.884Z,8.52
2024-05-09T05:23:31.936Z,8.62
2024-05-09T05:26:02.430Z,8.73
2024-05-09T05:28:30.831Z,8.83
2024-05-09T05:30:59.211Z,8.95
2024-05-09T05:33:30.563Z,9.09
2024-05-09T05:36:00.075Z,9.22
2024-05-09T05:38:28.890Z,9.34
2024-05-09T05:40:59.619Z,9.49
2024-05-09T05:43:30.963Z,9.65
2024-05-09T05:46:00.356Z,9.78
2024-05-09T05:48:30.834Z,9.89
2024-05-09T05:51:01.905Z,9.99
2024-05-09T05:53:32.073Z,10.13
2024-05-09T05:56:01.580Z,10.26
2024-05-09T05:58:32.058Z,10.33
2024-05-09T06:01:00.828Z,10.42
2024-05-09T06:03:31.489Z,10.54
2024-05-09T06:06:03.903Z,10.64
2024-05-09T06:08:34.623Z,10.76
2024-05-09T06:11:08.859Z,10.91
2024-05-09T06:13:45.775Z,11.04
2024-05-09T06:16:17.216Z,11.16
2024-05-09T06:18:46.858Z,11.24
2024-05-09T06:21:18.464Z,11.34
2024-05-09T06:23:47.781Z,11.46
2024-05-09T06:26:18.967Z,11.57
2024-05-09T06:28:50.231Z,11.69
2024-05-09T06:31:18.830Z,11.78
2024-05-09T06:33:49.493Z,11.89
2024-05-09T06:36:20.666Z,11.94
2024-05-09T06:38:49.144Z,12.06
2024-05-09T06:41:20.489Z,12.19
2024-05-09T06:43:51.082Z,12.25
2024-05-09T06:46:19.672Z,12.31
2024-05-09T06:48:49.097Z,12.40
2024-05-09T06:51:20.371Z,12.46
2024-05-09T06:53:48.823Z,12.54
2024-05-09T06:56:17.197Z,12.63
2024-05-09T06:58:48.068Z,12.76
2024-05-09T07:01:16.476Z,12.87
2024-05-09T07:03:47.736Z,12.96
2024-05-09T07:06:17.295Z,13.08
2024-05-09T07:08:46.950Z,13.08
2024-05-09T07:11:18.693Z,13.19
2024-05-09T07:13:50.117Z,13.33
2024-05-09T07:16:18.520Z,13.45
2024-05-09T07:18:49.620Z,13.55
2024-05-09T07:21:18.225Z,13.64
2024-05-09T07:23:47.441Z,13.73
2024-05-09T07:26:16.168Z,13.78
2024-05-09T07:28:44.624Z,13.92
2024-05-09T07:31:12.945Z,14.02
2024-05-09T07:33:41.466Z,14.12
2024-05-09T07:36:10.068Z,14.23
2024-05-09T07:38:38.573Z,14.33
2024-05-09T07:41:07.302Z,14.43
2024-05-09T07:43:35.692Z,14.58
2024-05-09T07:47:03.891Z,14.70
2024-05-09T07:53:59.559Z,15.07
2024-05-09T07:56:29.355Z,15.25
2024-05-09T07:58:57.862Z,15.38
2024-05-09T08:01:27.169Z,15.44
2024-05-09T08:03:56.143Z,15.53
2024-05-09T08:06:25.437Z,15.57
2024-05-09T08:08:53.837Z,15.68
2024-05-09T08:11:22.288Z,15.73
2024-05-09T08:13:50.651Z,15.82
2024-05-09T08:16:19.421Z,15.97
2024-05-09T08:18:50.213Z,16.03
2024-05-09T08:21:19.319Z,16.13
2024-05-09T08:23:47.726Z,16.22
2024-05-09T08:26:17.160Z,16.36
2024-05-09T08:28:45.490Z,16.54
2024-05-09T08:31:14.107Z,16.70
2024-05-09T08:33:49.077Z,16.90
2024-05-09T08:36:17.798Z,17.11
2024-05-09T08:38:46.147Z,17.19
2024-05-09T08:41:15.909Z,17.20
2024-05-09T08:43:45.326Z,17.41
2024-05-09T08:46:14.374Z,17.62
2024-05-09T08:48:45.790Z,17.62
2024-05-09T08:51:15.453Z,17.57
2024-05-09T08:53:43.882Z,17.59
2024-05-09T08:56:12.480Z,17.70
2024-05-09T08:58:42.492Z,17.80
2024-05-09T09:01:12.814Z,18.05
2024-05-09T09:03:43.136Z,17.98
2024-05-09T09:06:16.620Z,17.93
2024-05-09T09:08:46.320Z,18.00
2024-05-09T09:11:14.707Z,18.26
2024-05-09T09:13:43.052Z,18.50
2024-05-09T09:16:12.749Z,18.73
2024-05-09T09:18:44.424Z,19.02
2024-05-09T09:21:12.964Z,19.27
2024-05-09T09:23:41.345Z,19.47
2024-05-09T09:26:09.858Z,19.64
2024-05-09T09:28:38.263Z,19.83
2024-05-09T09:31:06.603Z,19.86
2024-05-09T09:33:36.148Z,19.73
2024-05-09T09:36:08.206Z,19.87
2024-05-09T09:38:40.360Z,20.01
2024-05-09T09:41:10.802Z,20.14
2024-05-09T09:43:40.890Z,20.20
2024-05-09T09:46:12.589Z,19.97
2024-05-09T09:48:43.410Z,19.73
2024-05-09T09:51:12.181Z,19.55
2024-05-09T09:53:42.332Z,19.54
2024-05-09T09:56:11.604Z,19.61
2024-05-09T09:58:42.928Z,19.67
2024-05-09T10:01:11.493Z,19.66
2024-05-09T10:03:45.578Z,19.61
2024-05-09T10:06:16.059Z,19.50
2024-05-09T10:08:47.412Z,19.53
2024-05-09T10:11:23.125Z,19.56
2024-05-09T10:13:53.712Z,19.69
2024-05-09T10:16:23.092Z,19.87
2024-05-09T10:18:51.652Z,20.17
2024-05-09T10:21:21.153Z,20.20
2024-05-09T10:23:59.787Z,20.28
2024-05-09T10:26:34.436Z,20.47
2024-05-09T10:29:13.678Z,20.33
2024-05-09T10:31:43.851Z,20.55
2024-05-09T10:34:20.066Z,20.41
2024-05-09T10:36:55.883Z,20.23
2024-05-09T10:39:26.003Z,20.28
2024-05-09T10:41:54.403Z,20.27
2024-05-09T10:44:22.945Z,20.45
2024-05-09T10:46:53.629Z,20.65
2024-05-09T10:49:22.185Z,20.70
2024-05-09T10:51:50.981Z,20.92
2024-05-09T10:54:19.315Z,21.21
2024-05-09T10:56:56.161Z,21.23
2024-05-09T10:59:24.669Z,21.50
2024-05-09T11:01:53.404Z,21.89
2024-05-09T11:04:22.086Z,22.03
2024-05-09T11:06:50.649Z,21.92
2024-05-09T11:09:19.047Z,21.54
2024-05-09T11:11:47.424Z,21.72
2024-05-09T11:14:17.188Z,21.96
2024-05-09T11:16:45.059Z,22.28
2024-05-09T11:19:14.669Z,22.18
2024-05-09T11:21:43.253Z,22.17
2024-05-09T11:24:12.225Z,22.11
2024-05-09T11:26:40.578Z,22.21
2024-05-09T11:29:08.887Z,22.23
2024-05-09T11:31:57.461Z,22.04
2024-05-09T11:34:25.865Z,21.96
2024-05-09T11:36:54.299Z,21.96
2024-05-09T11:39:22.628Z,21.78
2024-05-09T11:41:51.009Z,21.66
2024-05-09T11:44:19.331Z,21.44
2024-05-09T11:46:47.792Z,21.38
2024-05-09T11:49:16.196Z,21.42
2024-05-09T11:51:44.630Z,21.36
2024-05-09T11:54:12.960Z,21.38
2024-05-09T11:56:41.304Z,21.46
2024-05-09T11:59:10.379Z,21.52
2024-05-09T12:01:38.774Z,21.63
2024-05-09T12:04:07.409Z,21.71
2024-05-09T12:06:36.109Z,21.62
2024-05-09T12:09:04.619Z,21.57
2024-05-09T12:11:33.020Z,21.51
2024-05-09T12:14:01.385Z,21.55
2024-05-09T12:16:30.141Z,21.51
2024-05-09T12:18:58.699Z,21.61
2024-05-09T12:21:27.098Z,21.54
2024-05-09T12:23:55.414Z,21.56
2024-05-09T12:26:23.913Z,21.68
2024-05-09T12:28:52.321Z,21.69
2024-05-09T12:31:20.745Z,21.52
2024-05-09T12:33:49.286Z,21.70
2024-05-09T12:36:17.789Z,21.92
2024-05-09T12:38:46.551Z,22.01
2024-05-09T12:41:14.885Z,21.97
2024-05-09T12:43:43.220Z,22.01
2024-05-09T12:46:11.934Z,22.03
2024-05-09T12:48:40.516Z,22.08
2024-05-09T12:51:08.972Z,22.22
2024-05-09T12:53:37.336Z,22.23
2024-05-09T12:56:07.275Z,22.20
2024-05-09T12:58:38.096Z,22.16
2024-05-09T13:01:06.470Z,22.10
2024-05-09T13:03:35.077Z,22.09
2024-05-09T13:06:03.492Z,21.94
2024-05-09T13:08:31.994Z,22.14
2024-05-09T13:11:00.698Z,22.22
2024-05-09T13:13:29.310Z,22.14
2024-05-09T13:15:57.790Z,22.10
2024-05-09T13:18:26.234Z,22.00
2024-05-09T13:20:54.622Z,22.02
2024-05-09T13:23:22.960Z,22.05
2024-05-09T13:25:51.307Z,22.12
2024-05-09T13:28:19.900Z,22.21
2024-05-09T13:30:48.425Z,22.17
2024-05-09T13:33:16.860Z,21.99
2024-05-09T13:35:49.515Z,21.87
2024-05-09T13:38:20.860Z,21.72
2024-05-09T13:40:50.537Z,21.61
2024-05-09T13:43:20.772Z,21.46
2024-05-09T13:45:49.593Z,21.40
2024-05-09T13:48:19.599Z,21.27
2024-05-09T13:50:48.328Z,21.21
2024-05-09T13:53:16.685Z,21.19
2024-05-09T13:55:45.107Z,21.08
2024-05-09T13:58:13.530Z,21.08
2024-05-09T14:00:46.920Z,21.00
2024-05-09T14:03:19.972Z,21.00
2024-05-09T14:05:51.368Z,20.95
2024-05-09T14:08:21.824Z,20.84
2024-05-09T14:10:50.875Z,20.74
2024-05-09T14:13:20.016Z,20.83
2024-05-09T14:15:48.720Z,20.86
2024-05-09T14:18:18.652Z,20.86
2024-05-09T14:20:46.625Z,20.95
2024-05-09T14:23:15.575Z,21.01
2024-05-09T14:25:47.218Z,21.10
2024-05-09T14:28:18.399Z,20.98
2024-05-09T14:30:46.914Z,20.79
2024-05-09T14:33:20.544Z,20.73
2024-05-09T14:35:50.099Z,20.88
2024-05-09T14:38:18.444Z,20.85
2024-05-09T14:40:47.053Z,20.93
2024-05-09T14:43:16.052Z,21.11
2024-05-09T14:45:45.361Z,21.23
2024-05-09T14:48:17.350Z,21.53
2024-05-09T14:50:45.880Z,21.62
2024-05-09T14:53:14.268Z,21.79
2024-05-09T14:55:43.765Z,22.26
2024-05-09T14:58:13.068Z,22.80
2024-05-09T15:00:46.851Z,23.16
2024-05-09T15:03:20.264Z,23.16
2024-05-09T15:05:49.716Z,23.14
2024-05-09T15:08:19.112Z,23.00
2024-05-09T15:10:49.985Z,23.05
2024-05-09T15:13:19.973Z,23.21
2024-05-09T15:15:48.978Z,23.60
2024-05-09T15:18:18.573Z,24.12
2024-05-09T15:20:47.037Z,23.92
2024-05-09T15:23:15.543Z,23.93
2024-05-09T15:25:44.773Z,24.00
2024-05-09T15:28:13.204Z,24.68
2024-05-09T15:30:45.214Z,25.34
2024-05-09T15:33:15.224Z,25.87
2024-05-09T15:35:46.126Z,26.04
2024-05-09T15:38:16.253Z,25.97
2024-05-09T15:40:44.784Z,25.85
2024-05-09T15:43:13.263Z,26.11
2024-05-09T15:45:42.055Z,26.48
2024-05-09T15:48:11.507Z,26.86
2024-05-09T15:50:42.064Z,27.05
2024-05-09T15:53:13.328Z,27.03
2024-05-09T15:55:42.816Z,26.70
2024-05-09T15:58:11.642Z,26.39
2024-05-09T16:00:42.822Z,26.35
2024-05-09T16:03:14.401Z,25.88
2024-05-09T16:05:47.998Z,25.49
2024-05-09T16:08:16.811Z,25.28
2024-05-09T16:10:47.137Z,24.95
2024-05-09T16:13:17.356Z,24.64
2024-05-09T16:15:46.851Z,24.31
2024-05-09T16:18:15.688Z,24.43
2024-05-09T16:20:45.669Z,24.67
2024-05-09T16:23:15.894Z,25.14
2024-05-09T16:25:47.455Z,25.73
2024-05-09T16:28:15.835Z,26.09
2024-05-09T16:30:44.298Z,25.91
2024-05-09T16:33:12.888Z,25.59
2024-05-09T16:35:41.528Z,26.04
2024-05-09T16:38:09.913Z,26.34
2024-05-09T16:40:40.739Z,26.61
2024-05-09T16:43:10.874Z,27.02
2024-05-09T16:45:44.699Z,27.23
2024-05-09T16:48:14.193Z,27.40
2024-05-09T16:50:42.811Z,27.79
2024-05-09T16:53:11.221Z,27.68
2024-05-09T16:55:39.622Z,27.06
2024-05-09T16:58:08.638Z,26.47
2024-05-09T17:00:41.963Z,26.19
2024-05-09T17:03:15.440Z,25.82
2024-05-09T17:05:46.886Z,26.10
2024-05-09T17:08:19.991Z,26.73
2024-05-09T17:10:49.839Z,27.31
2024-05-09T17:13:19.337Z,27.62
2024-05-09T17:15:49.194Z,27.85
2024-05-09T17:18:17.228Z,27.96
2024-05-09T17:20:45.690Z,27.99
2024-05-09T17:23:14.586Z,28.07
2024-05-09T17:25:44.395Z,28.17
2024-05-09T17:28:13.028Z,28.24
2024-05-09T17:30:42.796Z,28.16
2024-05-09T17:33:12.723Z,28.19
2024-05-09T17:35:41.934Z,28.14
2024-05-09T17:38:10.403Z,27.77
2024-05-09T17:40:39.549Z,26.80
2024-05-09T17:43:10.432Z,25.80
2024-05-09T17:45:41.280Z,25.07
2024-05-09T17:48:12.167Z,24.41
2024-05-09T17:50:41.910Z,23.83
2024-05-09T17:53:11.413Z,23.40
2024-05-09T17:55:40.718Z,23.00
2024-05-09T17:58:10.297Z,22.66
2024-05-09T18:03:12.493Z,21.90
2024-05-09T18:05:43.090Z,21.63
2024-05-09T18:08:12.815Z,21.25
2024-05-09T18:10:41.964Z,21.09
2024-05-09T18:13:11.903Z,20.86
2024-05-09T18:15:41.094Z,20.73
2024-05-09T18:18:10.651Z,20.53
2024-05-09T18:20:44.900Z,20.36
2024-05-09T18:23:16.774Z,20.28
2024-05-09T18:25:47.356Z,20.20
2024-05-09T18:28:16.593Z,20.09
2024-05-09T18:30:45.506Z,19.98
2024-05-09T18:33:14.280Z,19.87
2024-05-09T18:35:46.414Z,19.77
2024-05-09T18:38:15.164Z,19.72
2024-05-09T18:40:46.096Z,19.62
2024-05-09T18:43:17.153Z,19.56
2024-05-09T18:45:46.518Z,19.51
2024-05-09T18:48:15.156Z,19.41
2024-05-09T18:50:43.701Z,19.35
2024-05-09T18:53:13.469Z,19.27
2024-05-09T18:55:42.779Z,19.20
2024-05-09T18:58:11.587Z,19.09
2024-05-09T19:00:42.769Z,19.02
2024-05-09T19:03:14.783Z,18.94
2024-05-09T19:05:45.912Z,18.86
2024-05-09T19:08:15.615Z,18.81
2024-05-09T19:10:45.958Z,18.75
2024-05-09T19:13:15.514Z,18.67
2024-05-09T19:15:48.527Z,18.62
2024-05-09T19:18:17.305Z,18.57
2024-05-09T19:20:45.839Z,18.55
2024-05-09T19:23:14.396Z,18.42
2024-05-09T19:25:44.759Z,18.39
2024-05-09T19:28:15.328Z,18.27
2024-05-09T19:30:43.699Z,18.18
2024-05-09T19:33:13.429Z,18.15
2024-05-09T19:35:43.611Z,18.00
2024-05-09T19:38:12.674Z,17.74
2024-05-09T19:40:41.225Z,17.60
2024-05-09T19:43:10.317Z,17.56
2024-05-09T19:45:40.055Z,17.61
2024-05-09T19:48:09.136Z,17.63
2024-05-09T19:50:42.868Z,17.50
2024-05-09T19:53:13.871Z,17.40
2024-05-09T19:55:43.041Z,17.24
2024-05-09T19:58:12.487Z,17.04
2024-05-09T20:00:43.504Z,16.91
2024-05-09T20:03:15.227Z,16.79
2024-05-09T20:05:46.895Z,16.80
2024-05-09T20:08:15.997Z,16.75
2024-05-09T20:10:44.457Z,16.64
2024-05-09T20:13:14.262Z,16.61
2024-05-09T20:15:43.755Z,16.56
2024-05-09T20:18:12.612Z,16.42
2024-05-09T20:20:43.149Z,16.34
2024-05-09T20:23:13.682Z,16.26
2024-05-09T20:25:43.359Z,16.20
2024-05-09T20:28:11.941Z,16.06
2024-05-09T20:30:40.517Z,16.01
2024-05-09T20:33:09.892Z,15.93
2024-05-09T20:35:38.705Z,15.87
2024-05-09T20:38:07.047Z,15.83
2024-05-09T20:40:38.256Z,15.75
2024-05-09T20:43:11.218Z,15.62
2024-05-09T20:45:40.621Z,15.59
2024-05-09T20:48:10.097Z,15.58
2024-05-09T20:50:41.515Z,15.51
2024-05-09T20:53:14.725Z,15.37
2024-05-09T20:55:45.323Z,15.32
2024-05-09T20:58:14.335Z,15.24
2024-05-09T21:00:45.871Z,15.16
2024-05-09T21:03:17.038Z,15.06
2024-05-09T21:05:47.407Z,14.96
2024-05-09T21:08:16.556Z,14.90
2024-05-09T21:10:44.993Z,14.83
2024-05-09T21:13:13.461Z,14.82
2024-05-09T21:15:42.146Z,14.76
2024-05-09T21:18:10.600Z,14.72
2024-05-09T21:20:39.022Z,14.61
2024-05-09T21:23:07.358Z,14.62
2024-05-09T21:25:35.909Z,14.55
2024-05-09T21:28:04.454Z,14.47
2024-05-09T21:30:41.053Z,14.37
2024-05-09T21:33:14.119Z,14.32
2024-05-09T21:35:44.649Z,14.26
2024-05-09T21:38:14.799Z,14.26
2024-05-09T21:40:43.738Z,14.22
2024-05-09T21:43:12.450Z,14.15
2024-05-09T21:45:40.927Z,14.04
2024-05-09T21:48:09.464Z,14.02
2024-05-09T21:50:41.139Z,13.99
2024-05-09T21:53:12.421Z,14.03
2024-05-09T21:55:42.989Z,14.11
2024-05-09T21:58:13.988Z,14.07
2024-05-09T22:00:45.404Z,14.06
2024-05-09T22:03:14.713Z,14.08
2024-05-09T22:05:44.980Z,14.09
2024-05-09T22:08:13.949Z,14.00
2024-05-09T22:10:42.524Z,13.96
2024-05-09T22:13:11.403Z,13.92
2024-05-09T22:15:41.128Z,13.79
2024-05-09T22:18:10.641Z,13.69
2024-05-09T22:20:45.024Z,13.59
2024-05-09T22:23:15.557Z,13.59
2024-05-09T22:25:44.217Z,13.58
2024-05-09T22:28:15.897Z,13.54
2024-05-09T22:30:46.125Z,13.57
2024-05-09T22:33:15.857Z,13.55
2024-05-09T22:35:44.499Z,13.46
2024-05-09T22:38:12.882Z,13.41
2024-05-09T22:40:47.436Z,13.37
2024-05-09T22:43:23.418Z,13.31
2024-05-09T22:45:54.970Z,13.27
2024-05-09T22:48:25.013Z,13.26
2024-05-09T22:50:54.652Z,13.28
2024-05-09T22:53:24.708Z,13.17
2024-05-09T22:55:53.473Z,13.13
2024-05-09T22:58:21.977Z,13.09
2024-05-09T23:00:50.601Z,13.03
2024-05-09T23:03:21.898Z,12.97
2024-05-09T23:05:51.089Z,12.93
2024-05-09T23:08:19.454Z,12.93
2024-05-09T23:10:47.879Z,12.97
2024-05-09T23:13:16.377Z,12.99
2024-05-09T23:15:44.834Z,13.00
2024-05-09T23:18:13.357Z,12.93
2024-05-09T23:20:41.815Z,12.92
2024-05-09T23:23:11.686Z,12.90
2024-05-09T23:25:44.060Z,12.80
2024-05-09T23:28:12.838Z,12.80
2024-05-09T23:30:42.007Z,12.78
2024-05-09T23:33:12.889Z,12.73
2024-05-09T23:35:44.170Z,12.65
2024-05-09T23:38:13.495Z,12.61
2024-05-09T23:40:42.967Z,12.59
2024-05-09T23:43:12.715Z,12.54
2024-05-09T23:45:42.256Z,12.46
2024-05-09T23:48:11.697Z,12.42
2024-05-09T23:50:40.958Z,12.42
2024-05-09T23:53:10.631Z,12.39
2024-05-09T23:55:39.690Z,12.33
2024-05-09T23:58:08.688Z,12.28
